sensor_id;sensor_type;location;lat;lon;timestamp;pressure;altitude;pressure_sealevel;temperature;humidity
22930;BME280;11630;42.660;23.292;2023-08-07T00:00:35;69677.39;;;19.31;98.59
22930;BME280;11630;42.660;23.292;2023-08-07T00:03:06;69699.03;;;19.52;98.25
22930;BME280;11630;42.660;23.292;2023-08-07T00:05:37;69654.61;;;19.19;100.00
22930;BME280;11630;42.660;23.292;2023-08-07T00:08:08;69661.70;;;19.31;100.00
22930;BME280;11630;42.660;23.292;2023-08-07T00:10:39;69662.80;;;19.29;99.51
22930;BME280;11630;42.660;23.292;2023-08-07T00:13:09;69678.45;;;19.37;99.32
22930;BME280;11630;42.660;23.292;2023-08-07T00:15:38;69667.47;;;19.32;99.70
22930;BME280;11630;42.660;23.292;2023-08-07T00:18:09;69669.69;;;19.29;99.37
22930;BME280;11630;42.660;23.292;2023-08-07T00:20:39;69655.41;;;19.21;100.00
22930;BME280;11630;42.660;23.292;2023-08-07T00:23:10;69688.05;;;19.47;99.79
22930;BME280;11630;42.660;23.292;2023-08-07T00:25:41;69673.81;;;19.29;99.86
22930;BME280;11630;42.660;23.292;2023-08-07T00:28:12;69675.42;;;19.38;99.12
22930;BME280;11630;42.660;23.292;2023-08-07T00:30:41;69669.13;;;19.31;99.67
22930;BME280;11630;42.660;23.292;2023-08-07T00:33:12;69673.85;;;19.24;100.00
22930;BME280;11630;42.660;23.292;2023-08-07T00:35:43;69651.33;;;19.14;100.00
22930;BME280;11630;42.660;23.292;2023-08-07T00:38:13;69654.65;;;19.07;100.00
22930;BME280;11630;42.660;23.292;2023-08-07T00:40:44;69633.51;;;18.96;100.00
22930;BME280;11630;42.660;23.292;2023-08-07T00:43:14;69641.45;;;19.02;100.00
22930;BME280;11630;42.660;23.292;2023-08-07T00:45:46;69635.75;;;18.88;100.00
22930;BME280;11630;42.660;23.292;2023-08-07T00:48:17;69676.56;;;19.34;100.00
22930;BME280;11630;42.660;23.292;2023-08-07T00:50:49;69624.98;;;18.92;100.00
22930;BME280;11630;42.660;23.292;2023-08-07T00:53:20;69644.48;;;19.01;100.00
22930;BME280;11630;42.660;23.292;2023-08-07T00:55:53;69630.77;;;18.94;100.00
22930;BME280;11630;42.660;23.292;2023-08-07T00:58:23;69638.15;;;19.04;100.00
22930;BME280;11630;42.660;23.292;2023-08-07T01:00:54;69623.92;;;18.86;100.00
22930;BME280;11630;42.660;23.292;2023-08-07T01:03:25;69622.80;;;18.88;100.00
22930;BME280;11630;42.660;23.292;2023-08-07T01:05:55;69634.88;;;18.96;100.00
22930;BME280;11630;42.660;23.292;2023-08-07T01:08:26;69649.11;;;19.14;100.00
22930;BME280;11630;42.660;23.292;2023-08-07T01:11:22;69570.48;;;18.42;100.00
22930;BME280;11630;42.660;23.292;2023-08-07T01:14:13;69574.60;;;18.47;100.00
22930;BME280;11630;42.660;23.292;2023-08-07T01:16:56;69582.83;;;18.52;100.00
22930;BME280;11630;42.660;23.292;2023-08-07T01:19:26;69579.81;;;18.50;100.00
22930;BME280;11630;42.660;23.292;2023-08-07T01:24:43;69610.27;;;18.66;100.00
22930;BME280;11630;42.660;23.292;2023-08-07T01:35:44;69551.34;;;18.14;100.00
22930;BME280;11630;42.660;23.292;2023-08-07T01:38:16;69525.82;;;18.05;100.00
22930;BME280;11630;42.660;23.292;2023-08-07T01:40:47;69557.66;;;18.24;100.00
22930;BME280;11630;42.660;23.292;2023-08-07T01:43:19;69545.27;;;18.19;100.00
22930;BME280;11630;42.660;23.292;2023-08-07T01:45:48;69578.80;;;18.27;100.00
22930;BME280;11630;42.660;23.292;2023-08-07T01:48:19;69547.22;;;18.17;100.00
22930;BME280;11630;42.660;23.292;2023-08-07T01:50:50;69526.17;;;17.91;100.00
22930;BME280;11630;42.660;23.292;2023-08-07T01:53:21;69521.20;;;17.94;100.00
22930;BME280;11630;42.660;23.292;2023-08-07T01:55:52;69498.52;;;17.68;100.00
22930;BME280;11630;42.660;23.292;2023-08-07T01:58:22;69522.56;;;17.97;100.00
22930;BME280;11630;42.660;23.292;2023-08-07T02:00:54;69518.12;;;18.08;100.00
22930;BME280;11630;42.660;23.292;2023-08-07T02:03:25;69547.75;;;18.20;100.00
22930;BME280;11630;42.660;23.292;2023-08-07T02:05:56;69498.71;;;17.84;100.00
22930;BME280;11630;42.660;23.292;2023-08-07T02:08:26;69498.45;;;17.77;100.00
22930;BME280;11630;42.660;23.292;2023-08-07T02:10:56;69509.15;;;17.86;100.00
22930;BME280;11630;42.660;23.292;2023-08-07T02:13:27;69494.34;;;17.75;100.00
22930;BME280;11630;42.660;23.292;2023-08-07T02:15:58;69485.07;;;17.59;100.00
22930;BME280;11630;42.660;23.292;2023-08-07T02:18:29;69471.63;;;17.56;100.00
22930;BME280;11630;42.660;23.292;2023-08-07T02:21:00;69466.42;;;17.52;100.00
22930;BME280;11630;42.660;23.292;2023-08-07T02:23:31;69485.59;;;17.67;100.00
22930;BME280;11630;42.660;23.292;2023-08-07T02:26:02;69490.81;;;17.68;100.00
22930;BME280;11630;42.660;23.292;2023-08-07T02:28:36;69517.09;;;17.92;100.00
22930;BME280;11630;42.660;23.292;2023-08-07T02:31:07;69529.16;;;17.98;100.00
22930;BME280;11630;42.660;23.292;2023-08-07T02:33:38;69521.47;;;17.98;100.00
22930;BME280;11630;42.660;23.292;2023-08-07T02:36:09;69514.92;;;17.85;100.00
22930;BME280;11630;42.660;23.292;2023-08-07T02:38:40;69486.20;;;17.55;100.00
22930;BME280;11630;42.660;23.292;2023-08-07T02:41:11;69477.95;;;17.55;100.00
22930;BME280;11630;42.660;23.292;2023-08-07T02:43:44;69480.16;;;17.57;100.00
22930;BME280;11630;42.660;23.292;2023-08-07T02:46:15;69492.73;;;17.71;100.00
22930;BME280;11630;42.660;23.292;2023-08-07T02:48:48;69506.70;;;17.80;100.00
22930;BME280;11630;42.660;23.292;2023-08-07T02:51:19;69501.51;;;17.72;100.00
22930;BME280;11630;42.660;23.292;2023-08-07T02:53:50;69514.62;;;17.91;100.00
22930;BME280;11630;42.660;23.292;2023-08-07T02:56:21;69521.45;;;18.01;100.00
22930;BME280;11630;42.660;23.292;2023-08-07T02:58:52;69544.73;;;18.23;100.00
22930;BME280;11630;42.660;23.292;2023-08-07T03:01:23;69566.16;;;18.28;100.00
22930;BME280;11630;42.660;23.292;2023-08-07T03:03:53;69552.42;;;18.18;100.00
22930;BME280;11630;42.660;23.292;2023-08-07T03:06:24;69528.33;;;18.01;100.00
22930;BME280;11630;42.660;23.292;2023-08-07T03:08:56;69542.58;;;18.09;100.00
22930;BME280;11630;42.660;23.292;2023-08-07T03:11:27;69512.44;;;17.86;100.00
22930;BME280;11630;42.660;23.292;2023-08-07T03:13:57;69515.44;;;17.93;100.00
22930;BME280;11630;42.660;23.292;2023-08-07T03:16:28;69509.42;;;17.85;100.00
22930;BME280;11630;42.660;23.292;2023-08-07T03:18:58;69517.92;;;17.89;100.00
22930;BME280;11630;42.660;23.292;2023-08-07T03:21:29;69489.16;;;17.69;100.00
22930;BME280;11630;42.660;23.292;2023-08-07T03:24:00;69485.08;;;17.62;100.00
22930;BME280;11630;42.660;23.292;2023-08-07T03:26:31;69489.98;;;17.71;100.00
22930;BME280;11630;42.660;23.292;2023-08-07T03:29:02;69479.58;;;17.64;100.00
22930;BME280;11630;42.660;23.292;2023-08-07T03:31:33;69494.95;;;17.63;100.00
22930;BME280;11630;42.660;23.292;2023-08-07T03:34:04;69502.04;;;17.77;100.00
22930;BME280;11630;42.660;23.292;2023-08-07T03:36:35;69517.69;;;17.82;100.00
22930;BME280;11630;42.660;23.292;2023-08-07T03:39:06;69518.49;;;17.87;100.00
22930;BME280;11630;42.660;23.292;2023-08-07T03:41:36;69509.15;;;17.86;100.00
22930;BME280;11630;42.660;23.292;2023-08-07T03:44:07;69540.13;;;18.05;100.00
22930;BME280;11630;42.660;23.292;2023-08-07T03:46:38;69574.38;;;18.35;100.00
22930;BME280;11630;42.660;23.292;2023-08-07T03:49:10;69547.19;;;18.27;100.00
22930;BME280;11630;42.660;23.292;2023-08-07T03:51:40;69539.55;;;18.07;100.00
22930;BME280;11630;42.660;23.292;2023-08-07T03:54:11;69515.72;;;17.92;100.00
22930;BME280;11630;42.660;23.292;2023-08-07T03:56:42;69491.11;;;17.62;100.00
22930;BME280;11630;42.660;23.292;2023-08-07T03:59:13;69476.84;;;17.62;100.00
22930;BME280;11630;42.660;23.292;2023-08-07T04:01:44;69494.91;;;17.71;100.00
22930;BME280;11630;42.660;23.292;2023-08-07T04:04:15;69491.97;;;17.54;100.00
22930;BME280;11630;42.660;23.292;2023-08-07T04:06:45;69475.19;;;17.60;100.00
22930;BME280;11630;42.660;23.292;2023-08-07T04:09:17;69490.26;;;17.70;100.00
22930;BME280;11630;42.660;23.292;2023-08-07T04:11:48;69521.46;;;17.96;100.00
22930;BME280;11630;42.660;23.292;2023-08-07T04:14:19;69498.77;;;17.72;100.00
22930;BME280;11630;42.660;23.292;2023-08-07T04:16:50;69484.52;;;17.61;100.00
22930;BME280;11630;42.660;23.292;2023-08-07T04:19:22;69486.42;;;17.67;100.00
22930;BME280;11630;42.660;23.292;2023-08-07T04:21:52;69486.16;;;17.65;100.00
22930;BME280;11630;42.660;23.292;2023-08-07T04:24:22;69523.66;;;17.98;100.00
22930;BME280;11630;42.660;23.292;2023-08-07T04:26:55;69556.53;;;18.28;100.00
22930;BME280;11630;42.660;23.292;2023-08-07T04:29:26;69557.66;;;18.24;100.00
22930;BME280;11630;42.660;23.292;2023-08-07T04:31:56;69513.26;;;17.88;100.00
22930;BME280;11630;42.660;23.292;2023-08-07T04:34:27;69566.74;;;18.16;100.00
22930;BME280;11630;42.660;23.292;2023-08-07T04:36:59;69548.02;;;18.19;100.00
22930;BME280;11630;42.660;23.292;2023-08-07T04:39:29;69569.39;;;18.41;100.00
22930;BME280;11630;42.660;23.292;2023-08-07T04:42:03;69564.23;;;18.30;100.00
22930;BME280;11630;42.660;23.292;2023-08-07T04:44:34;69523.10;;;18.00;100.00
22930;BME280;11630;42.660;23.292;2023-08-07T04:47:05;69576.58;;;18.35;100.00
22930;BME280;11630;42.660;23.292;2023-08-07T04:49:35;69546.94;;;18.23;100.00
22930;BME280;11630;42.660;23.292;2023-08-07T04:52:06;69598.77;;;18.56;100.00
22930;BME280;11630;42.660;23.292;2023-08-07T04:54:37;69600.13;;;18.58;100.00
22930;BME280;11630;42.660;23.292;2023-08-07T04:57:08;69565.04;;;18.29;100.00
22930;BME280;11630;42.660;23.292;2023-08-07T04:59:39;69593.27;;;18.51;100.00
22930;BME280;11630;42.660;23.292;2023-08-07T05:02:10;69594.33;;;18.62;100.00
22930;BME280;11630;42.660;23.292;2023-08-07T05:04:41;69668.95;;;19.15;100.00
22930;BME280;11630;42.660;23.292;2023-08-07T05:07:14;69592.70;;;18.55;100.00
22930;BME280;11630;42.660;23.292;2023-08-07T05:09:46;69620.34;;;18.84;100.00
22930;BME280;11630;42.660;23.292;2023-08-07T05:12:17;69574.89;;;18.41;100.00
22930;BME280;11630;42.660;23.292;2023-08-07T05:14:47;69549.41;;;18.21;100.00
22930;BME280;11630;42.660;23.292;2023-08-07T05:17:17;69519.27;;;17.96;100.00
22930;BME280;11630;42.660;23.292;2023-08-07T05:19:47;69538.19;;;18.05;100.00
22930;BME280;11630;42.660;23.292;2023-08-07T05:22:18;69565.59;;;18.32;100.00
22930;BME280;11630;42.660;23.292;2023-08-07T05:24:49;69616.85;;;18.70;100.00
22930;BME280;11630;42.660;23.292;2023-08-07T05:27:20;69655.44;;;19.16;100.00
22930;BME280;11630;42.660;23.292;2023-08-07T05:29:55;69705.64;;;19.53;100.00
22930;BME280;11630;42.660;23.292;2023-08-07T05:32:25;69605.58;;;18.68;100.00
22930;BME280;11630;42.660;23.292;2023-08-07T05:34:56;69594.88;;;18.60;100.00
22930;BME280;11630;42.660;23.292;2023-08-07T05:37:27;69654.63;;;19.14;100.00
22930;BME280;11630;42.660;23.292;2023-08-07T05:39:57;69608.88;;;18.69;100.00
22930;BME280;11630;42.660;23.292;2023-08-07T05:42:29;69629.13;;;18.90;100.00
22930;BME280;11630;42.660;23.292;2023-08-07T05:45:00;69679.31;;;19.34;100.00
22930;BME280;11630;42.660;23.292;2023-08-07T05:47:31;69659.88;;;19.10;100.00
22930;BME280;11630;42.660;23.292;2023-08-07T05:50:03;69643.13;;;18.99;100.00
22930;BME280;11630;42.660;23.292;2023-08-07T05:52:35;69728.94;;;19.78;100.00
22930;BME280;11630;42.660;23.292;2023-08-07T05:55:06;69710.83;;;19.64;100.00
22930;BME280;11630;42.660;23.292;2023-08-07T05:57:37;69788.25;;;20.21;99.90
22930;BME280;11630;42.660;23.292;2023-08-07T06:00:09;69764.83;;;20.16;97.49
22930;BME280;11630;42.660;23.292;2023-08-07T06:02:43;69823.08;;;20.57;96.30
22930;BME280;11630;42.660;23.292;2023-08-07T06:05:14;69815.03;;;20.61;96.62
22930;BME280;11630;42.660;23.292;2023-08-07T06:07:45;69735.49;;;19.86;98.32
22930;BME280;11630;42.660;23.292;2023-08-07T06:10:18;69727.30;;;19.74;98.89
22930;BME280;11630;42.660;23.292;2023-08-07T06:12:49;69727.02;;;19.75;99.74
22930;BME280;11630;42.660;23.292;2023-08-07T06:15:19;69715.75;;;19.71;99.47
22930;BME280;11630;42.660;23.292;2023-08-07T06:17:50;69781.04;;;20.27;98.00
22930;BME280;11630;42.660;23.292;2023-08-07T06:20:20;69796.45;;;20.31;97.59
22930;BME280;11630;42.660;23.292;2023-08-07T06:22:50;69869.39;;;21.10;94.87
22930;BME280;11630;42.660;23.292;2023-08-07T06:25:21;69914.33;;;21.22;91.52
22930;BME280;11630;42.660;23.292;2023-08-07T06:27:51;69835.09;;;20.75;92.47
22930;BME280;11630;42.660;23.292;2023-08-07T06:30:22;69862.25;;;21.03;90.14
22930;BME280;11630;42.660;23.292;2023-08-07T06:32:53;69891.63;;;21.29;88.92
22930;BME280;11630;42.660;23.292;2023-08-07T06:35:24;69937.00;;;21.64;88.45
22930;BME280;11630;42.660;23.292;2023-08-07T06:37:54;69945.30;;;21.64;84.08
22930;BME280;11630;42.660;23.292;2023-08-07T06:40:25;70002.34;;;22.25;80.76
22930;BME280;11630;42.660;23.292;2023-08-07T06:42:56;70063.80;;;22.62;78.85
22930;BME280;11630;42.660;23.292;2023-08-07T06:45:27;70032.87;;;22.51;78.43
22930;BME280;11630;42.660;23.292;2023-08-07T06:47:58;70032.64;;;22.45;76.69
22930;BME280;11630;42.660;23.292;2023-08-07T06:50:29;70112.97;;;23.13;72.76
22930;BME280;11630;42.660;23.292;2023-08-07T06:53:00;70112.97;;;23.13;72.76
22930;BME280;11630;42.660;23.292;2023-08-07T06:55:31;70021.09;;;22.35;72.93
22930;BME280;11630;42.660;23.292;2023-08-07T06:58:02;70069.45;;;22.81;71.96
22930;BME280;11630;42.660;23.292;2023-08-07T07:00:33;69951.28;;;21.76;73.25
22930;BME280;11630;42.660;23.292;2023-08-07T07:03:05;70055.15;;;22.68;70.81
22930;BME280;11630;42.660;23.292;2023-08-07T07:05:36;70055.15;;;22.68;70.81
22930;BME280;11630;42.660;23.292;2023-08-07T07:08:08;70001.72;;;22.35;69.35
22930;BME280;11630;42.660;23.292;2023-08-07T07:10:40;70049.53;;;22.78;69.81
22930;BME280;11630;42.660;23.292;2023-08-07T07:13:11;70088.42;;;22.97;68.42
22930;BME280;11630;42.660;23.292;2023-08-07T07:15:41;70088.42;;;22.97;68.42
22930;BME280;11630;42.660;23.292;2023-08-07T07:18:12;70128.98;;;23.20;67.58
22930;BME280;11630;42.660;23.292;2023-08-07T07:20:44;70108.33;;;23.05;67.73
22930;BME280;11630;42.660;23.292;2023-08-07T07:23:15;70108.33;;;23.05;67.73
22930;BME280;11630;42.660;23.292;2023-08-07T07:25:46;70078.05;;;22.80;68.68
22930;BME280;11630;42.660;23.292;2023-08-07T07:28:17;70002.13;;;22.19;69.83
22930;BME280;11630;42.660;23.292;2023-08-07T07:30:48;70076.33;;;22.86;68.44
22930;BME280;11630;42.660;23.292;2023-08-07T07:33:21;70155.50;;;23.60;66.18
22930;BME280;11630;42.660;23.292;2023-08-07T07:35:54;70166.63;;;23.57;65.68
22930;BME280;11630;42.660;23.292;2023-08-07T07:38:25;70146.76;;;23.47;64.81
22930;BME280;11630;42.660;23.292;2023-08-07T07:40:56;70210.42;;;23.93;63.21
22930;BME280;11630;42.660;23.292;2023-08-07T07:43:27;70138.52;;;23.39;63.50
22930;BME280;11630;42.660;23.292;2023-08-07T07:45:57;70160.88;;;23.51;63.59
22930;BME280;11630;42.660;23.292;2023-08-07T07:48:28;70120.18;;;23.12;65.42
22930;BME280;11630;42.660;23.292;2023-08-07T07:51:02;70178.49;;;23.64;63.09
22930;BME280;11630;42.660;23.292;2023-08-07T07:53:33;70067.38;;;22.64;63.98
22930;BME280;11630;42.660;23.292;2023-08-07T07:56:05;70097.77;;;23.08;64.06
22930;BME280;11630;42.660;23.292;2023-08-07T07:58:35;70210.39;;;23.98;62.31
22930;BME280;11630;42.660;23.292;2023-08-07T08:01:06;70190.63;;;23.75;62.06
22930;BME280;11630;42.660;23.292;2023-08-07T08:03:36;70186.95;;;23.83;61.14
22930;BME280;11630;42.660;23.292;2023-08-07T08:06:06;70213.42;;;24.00;61.19
22930;BME280;11630;42.660;23.292;2023-08-07T08:08:38;70259.97;;;24.38;61.60
22930;BME280;11630;42.660;23.292;2023-08-07T08:11:10;70319.45;;;24.91;60.22
22930;BME280;11630;42.660;23.292;2023-08-07T08:13:40;70234.36;;;24.16;61.32
22930;BME280;11630;42.660;23.292;2023-08-07T08:16:11;70205.47;;;23.91;60.84
22930;BME280;11630;42.660;23.292;2023-08-07T08:18:42;70291.09;;;24.67;59.71
22930;BME280;11630;42.660;23.292;2023-08-07T08:21:13;70274.55;;;24.55;60.65
22930;BME280;11630;42.660;23.292;2023-08-07T08:23:42;70294.88;;;24.76;60.17
22930;BME280;11630;42.660;23.292;2023-08-07T08:26:14;70274.55;;;24.55;60.29
22930;BME280;11630;42.660;23.292;2023-08-07T08:28:46;70238.65;;;24.32;59.62
22930;BME280;11630;42.660;23.292;2023-08-07T08:31:16;70334.06;;;25.03;58.62
22930;BME280;11630;42.660;23.292;2023-08-07T08:33:48;70304.73;;;24.89;58.89
22930;BME280;11630;42.660;23.292;2023-08-07T08:36:18;70357.71;;;25.30;58.55
22930;BME280;11630;42.660;23.292;2023-08-07T08:38:49;70317.15;;;24.99;58.72
22930;BME280;11630;42.660;23.292;2023-08-07T08:41:20;70329.63;;;25.02;58.76
22930;BME280;11630;42.660;23.292;2023-08-07T08:43:53;70343.97;;;25.15;58.05
22930;BME280;11630;42.660;23.292;2023-08-07T08:46:27;70396.77;;;25.70;56.49
22930;BME280;11630;42.660;23.292;2023-08-07T08:48:58;70384.59;;;25.64;55.79
22930;BME280;11630;42.660;23.292;2023-08-07T08:51:30;70352.07;;;25.37;56.19
22930;BME280;11630;42.660;23.292;2023-08-07T08:54:00;70415.35;;;25.78;54.70
22930;BME280;11630;42.660;23.292;2023-08-07T08:56:31;70300.72;;;24.77;56.95
22930;BME280;11630;42.660;23.292;2023-08-07T08:59:04;70359.84;;;25.39;55.70
22930;BME280;11630;42.660;23.292;2023-08-07T09:01:35;70340.30;;;25.20;54.90
22930;BME280;11630;42.660;23.292;2023-08-07T09:04:06;70389.97;;;25.58;53.84
22930;BME280;11630;42.660;23.292;2023-08-07T09:06:37;70324.16;;;24.94;54.71
22930;BME280;11630;42.660;23.292;2023-08-07T09:09:10;70367.13;;;25.33;54.95
22930;BME280;11630;42.660;23.292;2023-08-07T09:11:45;70372.06;;;25.40;55.36
22930;BME280;11630;42.660;23.292;2023-08-07T09:14:20;70441.74;;;26.07;53.06
22930;BME280;11630;42.660;23.292;2023-08-07T09:16:51;70453.09;;;26.13;53.03
22930;BME280;11630;42.660;23.292;2023-08-07T09:19:22;70428.00;;;25.92;53.23
22930;BME280;11630;42.660;23.292;2023-08-07T09:21:53;70496.84;;;26.61;51.08
22930;BME280;11630;42.660;23.292;2023-08-07T09:24:23;70563.98;;;27.13;50.24
22930;BME280;11630;42.660;23.292;2023-08-07T09:26:58;70521.45;;;26.77;49.97
22930;BME280;11630;42.660;23.292;2023-08-07T09:29:29;70584.93;;;27.32;49.60
22930;BME280;11630;42.660;23.292;2023-08-07T09:32:12;70485.02;;;26.47;51.39
22930;BME280;11630;42.660;23.292;2023-08-07T09:34:39;70518.73;;;26.72;51.53
22930;BME280;11630;42.660;23.292;2023-08-07T09:37:10;70530.89;;;27.05;49.62
22930;BME280;11630;42.660;23.292;2023-08-07T09:39:41;70528.85;;;26.88;50.20
22930;BME280;11630;42.660;23.292;2023-08-07T09:42:16;70600.36;;;27.48;48.57
22930;BME280;11630;42.660;23.292;2023-08-07T09:44:47;70435.42;;;26.00;51.87
22930;BME280;11630;42.660;23.292;2023-08-07T09:47:19;70586.85;;;27.35;48.99
22930;BME280;11630;42.660;23.292;2023-08-07T09:49:51;70587.10;;;27.36;48.59
22930;BME280;11630;42.660;23.292;2023-08-07T09:52:22;70638.59;;;27.92;49.03
22930;BME280;11630;42.660;23.292;2023-08-07T09:54:57;70633.52;;;27.76;48.46
22930;BME280;11630;42.660;23.292;2023-08-07T09:57:27;70650.08;;;27.91;48.63
22930;BME280;11630;42.660;23.292;2023-08-07T09:59:58;70682.91;;;28.21;46.89
22930;BME280;11630;42.660;23.292;2023-08-07T10:02:29;70620.52;;;27.65;47.90
22930;BME280;11630;42.660;23.292;2023-08-07T10:05:00;70725.16;;;28.58;45.94
22930;BME280;11630;42.660;23.292;2023-08-07T10:07:31;70663.83;;;28.05;46.97
22930;BME280;11630;42.660;23.292;2023-08-07T10:10:03;70682.09;;;28.19;45.86
22930;BME280;11630;42.660;23.292;2023-08-07T10:12:33;70739.79;;;28.73;45.08
22930;BME280;11630;42.660;23.292;2023-08-07T10:15:04;70768.80;;;29.00;46.24
22930;BME280;11630;42.660;23.292;2023-08-07T10:17:33;70776.52;;;29.07;43.58
22930;BME280;11630;42.660;23.292;2023-08-07T10:20:05;70741.15;;;28.75;44.87
22930;BME280;11630;42.660;23.292;2023-08-07T10:22:38;70717.67;;;28.55;45.56
22930;BME280;11630;42.660;23.292;2023-08-07T10:25:09;70654.48;;;27.95;45.66
22930;BME280;11630;42.660;23.292;2023-08-07T10:27:41;70814.69;;;29.39;43.82
22930;BME280;11630;42.660;23.292;2023-08-07T10:30:14;70805.78;;;29.36;43.15
22930;BME280;11630;42.660;23.292;2023-08-07T10:32:46;70756.67;;;28.86;43.84
22930;BME280;11630;42.660;23.292;2023-08-07T10:35:33;70718.55;;;28.52;44.34
22930;BME280;11630;42.660;23.292;2023-08-07T10:38:12;70726.23;;;28.62;45.33
22930;BME280;11630;42.660;23.292;2023-08-07T10:40:59;70675.98;;;28.16;44.05
22930;BME280;11630;42.660;23.292;2023-08-07T10:43:30;70776.16;;;29.13;43.56
22930;BME280;11630;42.660;23.292;2023-08-07T10:46:03;70828.44;;;29.56;41.82
22930;BME280;11630;42.660;23.292;2023-08-07T10:48:40;70764.22;;;29.06;42.77
22930;BME280;11630;42.660;23.292;2023-08-07T10:51:14;70837.83;;;29.64;41.84
22930;BME280;11630;42.660;23.292;2023-08-07T10:53:48;70831.20;;;29.59;43.39
22930;BME280;11630;42.660;23.292;2023-08-07T10:56:38;70856.10;;;29.78;42.25
22930;BME280;11630;42.660;23.292;2023-08-07T10:58:54;70864.13;;;29.84;41.71
22930;BME280;11630;42.660;23.292;2023-08-07T11:04:13;70837.02;;;29.63;42.40
22930;BME280;11630;42.660;23.292;2023-08-07T11:06:46;70847.22;;;29.73;42.18
22930;BME280;11630;42.660;23.292;2023-08-07T11:09:15;70889.83;;;30.09;41.55
22930;BME280;11630;42.660;23.292;2023-08-07T11:11:47;70925.78;;;30.41;39.90
22930;BME280;11630;42.660;23.292;2023-08-07T11:14:19;70974.14;;;30.86;39.68
22930;BME280;11630;42.660;23.292;2023-08-07T11:16:50;70972.45;;;30.87;39.46
22930;BME280;11630;42.660;23.292;2023-08-07T11:19:22;71028.68;;;31.33;40.01
22930;BME280;11630;42.660;23.292;2023-08-07T11:21:57;71011.02;;;31.15;39.82
22930;BME280;11630;42.660;23.292;2023-08-07T11:24:30;71073.47;;;31.76;38.69
22930;BME280;11630;42.660;23.292;2023-08-07T11:27:00;70974.12;;;30.88;39.62
22930;BME280;11630;42.660;23.292;2023-08-07T11:29:33;71092.81;;;31.96;37.69
22930;BME280;11630;42.660;23.292;2023-08-07T11:32:05;70966.11;;;30.80;39.44
22930;BME280;11630;42.660;23.292;2023-08-07T11:34:35;70892.05;;;30.11;39.59
22930;BME280;11630;42.660;23.292;2023-08-07T11:37:06;71007.97;;;31.14;39.35
22930;BME280;11630;42.660;23.292;2023-08-07T11:39:44;71075.69;;;31.78;37.87
22930;BME280;11630;42.660;23.292;2023-08-07T11:42:13;71088.72;;;31.89;38.22
22930;BME280;11630;42.660;23.292;2023-08-07T11:44:43;71081.78;;;31.84;37.81
22930;BME280;11630;42.660;23.292;2023-08-07T11:47:15;71008.46;;;31.17;38.38
22930;BME280;11630;42.660;23.292;2023-08-07T11:49:46;71014.01;;;31.22;38.22
22930;BME280;11630;42.660;23.292;2023-08-07T11:52:19;71021.19;;;31.28;37.49
22930;BME280;11630;42.660;23.292;2023-08-07T11:54:49;71000.13;;;31.12;38.09
22930;BME280;11630;42.660;23.292;2023-08-07T11:57:23;71018.13;;;31.26;38.51
22930;BME280;11630;42.660;23.292;2023-08-07T11:59:55;70923.52;;;30.42;38.70
22930;BME280;11630;42.660;23.292;2023-08-07T12:02:26;70902.55;;;30.20;39.71
22930;BME280;11630;42.660;23.292;2023-08-07T12:05:00;70887.59;;;30.09;39.91
22930;BME280;11630;42.660;23.292;2023-08-07T12:07:31;70914.97;;;30.33;39.09
22930;BME280;11630;42.660;23.292;2023-08-07T12:10:07;70929.92;;;30.46;38.87
22930;BME280;11630;42.660;23.292;2023-08-07T12:12:39;70876.57;;;29.97;40.09
22930;BME280;11630;42.660;23.292;2023-08-07T12:15:10;70814.83;;;29.48;40.56
22930;BME280;11630;42.660;23.292;2023-08-07T12:17:40;70882.91;;;30.04;39.80
22930;BME280;11630;42.660;23.292;2023-08-07T12:20:12;70950.97;;;30.62;38.71
22930;BME280;11630;42.660;23.292;2023-08-07T12:22:42;71055.27;;;31.57;38.38
22930;BME280;11630;42.660;23.292;2023-08-07T12:25:13;71102.85;;;32.00;37.57
22930;BME280;11630;42.660;23.292;2023-08-07T12:27:44;71063.83;;;31.66;37.75
22930;BME280;11630;42.660;23.292;2023-08-07T12:30:16;70996.01;;;31.07;38.07
22930;BME280;11630;42.660;23.292;2023-08-07T12:32:46;70905.83;;;30.26;40.04
22930;BME280;11630;42.660;23.292;2023-08-07T12:35:17;70919.11;;;30.38;39.72
22930;BME280;11630;42.660;23.292;2023-08-07T12:37:47;70794.58;;;29.36;41.07
22930;BME280;11630;42.660;23.292;2023-08-07T12:40:18;70778.14;;;29.11;41.64
22930;BME280;11630;42.660;23.292;2023-08-07T12:42:50;70801.64;;;29.31;41.75
22930;BME280;11630;42.660;23.292;2023-08-07T12:45:23;70899.78;;;30.18;40.34
22930;BME280;11630;42.660;23.292;2023-08-07T12:47:54;70977.77;;;30.88;39.72
22930;BME280;11630;42.660;23.292;2023-08-07T12:50:24;70961.70;;;30.76;39.66
22930;BME280;11630;42.660;23.292;2023-08-07T12:52:55;70947.34;;;30.60;39.74
22930;BME280;11630;42.660;23.292;2023-08-07T12:55:24;70980.50;;;30.93;39.89
22930;BME280;11630;42.660;23.292;2023-08-07T12:57:54;70918.54;;;30.37;41.42
22930;BME280;11630;42.660;23.292;2023-08-07T13:00:24;70965.56;;;30.79;40.79
22930;BME280;11630;42.660;23.292;2023-08-07T13:02:53;70851.13;;;29.74;41.69
22930;BME280;11630;42.660;23.292;2023-08-07T13:05:23;70969.73;;;30.82;41.07
22930;BME280;11630;42.660;23.292;2023-08-07T13:07:54;71062.71;;;31.65;39.57
22930;BME280;11630;42.660;23.292;2023-08-07T13:10:25;70922.84;;;30.32;40.88
22930;BME280;11630;42.660;23.292;2023-08-07T13:13:00;70800.88;;;29.26;42.84
22930;BME280;11630;42.660;23.292;2023-08-07T13:15:33;70657.44;;;28.03;44.55
22930;BME280;11630;42.660;23.292;2023-08-07T13:18:02;70639.58;;;27.81;45.27
22930;BME280;11630;42.660;23.292;2023-08-07T13:20:32;70612.48;;;27.59;45.97